sensor_id;sensor_type;location;lat;lon;timestamp;temperature;humidity
29849;DHT22;16728;50.832;5.590;2023-01-08T00:00:26;10.70;99.90
29849;DHT22;16728;50.832;5.590;2023-01-08T00:03:33;10.60;99.90
29849;DHT22;16728;50.832;5.590;2023-01-08T00:06:41;10.70;99.90
29849;DHT22;16728;50.832;5.590;2023-01-08T00:09:46;10.70;99.90
29849;DHT22;16728;50.832;5.590;2023-01-08T00:12:50;10.70;99.90
29849;DHT22;16728;50.832;5.590;2023-01-08T00:15:55;10.70;99.90
29849;DHT22;16728;50.832;5.590;2023-01-08T00:19:00;10.70;99.90
29849;DHT22;16728;50.832;5.590;2023-01-08T00:22:02;10.70;99.90
29849;DHT22;16728;50.832;5.590;2023-01-08T00:34:15;10.70;99.90
29849;DHT22;16728;50.832;5.590;2023-01-08T00:37:20;10.70;99.90
29849;DHT22;16728;50.832;5.590;2023-01-08T00:40:22;10.70;99.90
29849;DHT22;16728;50.832;5.590;2023-01-08T00:43:24;10.70;99.90
29849;DHT22;16728;50.832;5.590;2023-01-08T00:46:26;10.70;99.90
29849;DHT22;16728;50.832;5.590;2023-01-08T00:49:28;10.70;99.90
29849;DHT22;16728;50.832;5.590;2023-01-08T00:52:31;10.70;99.90
29849;DHT22;16728;50.832;5.590;2023-01-08T00:55:32;10.70;99.90
29849;DHT22;16728;50.832;5.590;2023-01-08T00:58:34;10.70;99.90
29849;DHT22;16728;50.832;5.590;2023-01-08T01:01:37;10.60;99.90
29849;DHT22;16728;50.832;5.590;2023-01-08T01:04:39;10.70;99.90
29849;DHT22;16728;50.832;5.590;2023-01-08T01:07:42;10.70;99.90
29849;DHT22;16728;50.832;5.590;2023-01-08T01:10:44;10.70;99.90
29849;DHT22;16728;50.832;5.590;2023-01-08T01:13:47;10.70;99.90
29849;DHT22;16728;50.832;5.590;2023-01-08T01:16:49;10.70;99.90
29849;DHT22;16728;50.832;5.590;2023-01-08T01:19:51;10.70;99.90
29849;DHT22;16728;50.832;5.590;2023-01-08T01:22:53;10.70;99.90
29849;DHT22;16728;50.832;5.590;2023-01-08T01:25:55;10.70;99.90
29849;DHT22;16728;50.832;5.590;2023-01-08T01:28:58;10.70;99.90
29849;DHT22;16728;50.832;5.590;2023-01-08T01:32:00;10.70;99.90
29849;DHT22;16728;50.832;5.590;2023-01-08T01:35:02;10.70;99.90
29849;DHT22;16728;50.832;5.590;2023-01-08T01:38:04;10.70;99.90
29849;DHT22;16728;50.832;5.590;2023-01-08T01:41:06;10.70;99.90
29849;DHT22;16728;50.832;5.590;2023-01-08T01:44:40;10.70;99.90
29849;DHT22;16728;50.832;5.590;2023-01-08T01:47:44;10.70;99.90
29849;DHT22;16728;50.832;5.590;2023-01-08T01:50:50;10.70;99.90
29849;DHT22;16728;50.832;5.590;2023-01-08T01:53:55;10.70;99.90
29849;DHT22;16728;50.832;5.590;2023-01-08T01:56:58;10.70;99.90
29849;DHT22;16728;50.832;5.590;2023-01-08T02:00:05;10.70;99.90
29849;DHT22;16728;50.832;5.590;2023-01-08T02:03:10;10.70;99.90
29849;DHT22;16728;50.832;5.590;2023-01-08T02:06:22;10.70;99.90
29849;DHT22;16728;50.832;5.590;2023-01-08T02:09:41;10.70;99.90
29849;DHT22;16728;50.832;5.590;2023-01-08T02:12:47;10.70;99.90
29849;DHT22;16728;50.832;5.590;2023-01-08T02:16:23;10.70;99.90
29849;DHT22;16728;50.832;5.590;2023-01-08T02:19:35;10.70;99.90
29849;DHT22;16728;50.832;5.590;2023-01-08T02:22:53;10.70;99.90
29849;DHT22;16728;50.832;5.590;2023-01-08T02:26:18;10.60;99.90
29849;DHT22;16728;50.832;5.590;2023-01-08T02:29:24;10.70;99.90
29849;DHT22;16728;50.832;5.590;2023-01-08T02:32:31;10.70;99.90
29849;DHT22;16728;50.832;5.590;2023-01-08T02:35:40;10.70;99.90
29849;DHT22;16728;50.832;5.590;2023-01-08T02:39:10;10.70;99.90
29849;DHT22;16728;50.832;5.590;2023-01-08T02:45:56;10.70;99.90
29849;DHT22;16728;50.832;5.590;2023-01-08T02:49:06;10.70;99.90
29849;DHT22;16728;50.832;5.590;2023-01-08T02:52:11;10.70;99.90
29849;DHT22;16728;50.832;5.590;2023-01-08T02:55:14;10.60;99.90
29849;DHT22;16728;50.832;5.590;2023-01-08T02:58:19;10.60;99.90
29849;DHT22;16728;50.832;5.590;2023-01-08T03:01:23;10.60;99.90
29849;DHT22;16728;50.832;5.590;2023-01-08T03:04:27;10.60;99.90
29849;DHT22;16728;50.832;5.590;2023-01-08T03:07:32;10.70;99.90
29849;DHT22;16728;50.832;5.590;2023-01-08T03:10:36;10.70;99.90
29849;DHT22;16728;50.832;5.590;2023-01-08T03:17:27;10.70;99.90
29849;DHT22;16728;50.832;5.590;2023-01-08T03:20:28;10.70;99.90
29849;DHT22;16728;50.832;5.590;2023-01-08T03:23:32;10.60;99.90
29849;DHT22;16728;50.832;5.590;2023-01-08T03:26:36;10.70;99.90
29849;DHT22;16728;50.832;5.590;2023-01-08T03:29:39;10.60;99.90
29849;DHT22;16728;50.832;5.590;2023-01-08T03:32:42;10.60;99.90
29849;DHT22;16728;50.832;5.590;2023-01-08T03:35:48;10.60;99.90
29849;DHT22;16728;50.832;5.590;2023-01-08T03:39:13;10.60;99.90
29849;DHT22;16728;50.832;5.590;2023-01-08T03:42:19;10.60;99.90
29849;DHT22;16728;50.832;5.590;2023-01-08T03:45:23;10.70;99.90
29849;DHT22;16728;50.832;5.590;2023-01-08T03:48:27;10.70;99.90
29849;DHT22;16728;50.832;5.590;2023-01-08T03:51:50;10.70;99.90
29849;DHT22;16728;50.832;5.590;2023-01-08T03:54:53;10.60;99.90
29849;DHT22;16728;50.832;5.590;2023-01-08T03:57:55;10.60;99.90
29849;DHT22;16728;50.832;5.590;2023-01-08T04:00:57;10.60;99.90
29849;DHT22;16728;50.832;5.590;2023-01-08T04:03:59;10.60;99.90
29849;DHT22;16728;50.832;5.590;2023-01-08T04:07:01;10.60;99.90
29849;DHT22;16728;50.832;5.590;2023-01-08T04:10:03;10.60;99.90
29849;DHT22;16728;50.832;5.590;2023-01-08T04:13:05;10.70;99.90
29849;DHT22;16728;50.832;5.590;2023-01-08T04:16:07;10.60;99.90
29849;DHT22;16728;50.832;5.590;2023-01-08T04:19:11;10.60;99.90
29849;DHT22;16728;50.832;5.590;2023-01-08T04:22:13;10.50;99.90
29849;DHT22;16728;50.832;5.590;2023-01-08T04:25:15;10.50;99.90
29849;DHT22;16728;50.832;5.590;2023-01-08T04:28:17;10.50;99.90
29849;DHT22;16728;50.832;5.590;2023-01-08T04:31:19;10.50;99.90
29849;DHT22;16728;50.832;5.590;2023-01-08T04:34:21;10.50;99.90
29849;DHT22;16728;50.832;5.590;2023-01-08T04:37:23;10.50;99.90
29849;DHT22;16728;50.832;5.590;2023-01-08T04:40:25;10.50;99.90
29849;DHT22;16728;50.832;5.590;2023-01-08T04:43:28;10.50;99.90
29849;DHT22;16728;50.832;5.590;2023-01-08T04:46:30;10.50;99.90
29849;DHT22;16728;50.832;5.590;2023-01-08T04:49:32;10.50;99.90
29849;DHT22;16728;50.832;5.590;2023-01-08T04:52:34;10.50;99.90
29849;DHT22;16728;50.832;5.590;2023-01-08T04:55:36;10.50;99.90
29849;DHT22;16728;50.832;5.590;2023-01-08T04:58:40;10.40;99.90
29849;DHT22;16728;50.832;5.590;2023-01-08T05:01:42;10.20;99.90
29849;DHT22;16728;50.832;5.590;2023-01-08T05:04:44;9.90;99.90
29849;DHT22;16728;50.832;5.590;2023-01-08T05:07:47;9.80;99.90
29849;DHT22;16728;50.832;5.590;2023-01-08T05:10:49;9.70;99.90
29849;DHT22;16728;50.832;5.590;2023-01-08T05:13:52;9.60;99.90
29849;DHT22;16728;50.832;5.590;2023-01-08T05:16:54;9.40;99.90
29849;DHT22;16728;50.832;5.590;2023-01-08T05:19:56;9.40;99.90
29849;DHT22;16728;50.832;5.590;2023-01-08T05:22:58;9.30;99.90
29849;DHT22;16728;50.832;5.590;2023-01-08T05:26:02;9.20;99.90
29849;DHT22;16728;50.832;5.590;2023-01-08T05:29:05;9.20;99.90
29849;DHT22;16728;50.832;5.590;2023-01-08T05:32:15;9.30;99.90
29849;DHT22;16728;50.832;5.590;2023-01-08T05:35:17;9.30;99.90
29849;DHT22;16728;50.832;5.590;2023-01-08T05:38:19;9.40;99.90
29849;DHT22;16728;50.832;5.590;2023-01-08T05:41:21;9.40;99.90
29849;DHT22;16728;50.832;5.590;2023-01-08T05:44:23;9.40;99.90
29849;DHT22;16728;50.832;5.590;2023-01-08T05:47:29;9.40;99.90
29849;DHT22;16728;50.832;5.590;2023-01-08T05:50:31;9.40;99.90
29849;DHT22;16728;50.832;5.590;2023-01-08T05:53:33;9.40;99.90
29849;DHT22;16728;50.832;5.590;2023-01-08T05:56:35;9.40;99.90
29849;DHT22;16728;50.832;5.590;2023-01-08T05:59:37;9.30;99.90
29849;DHT22;16728;50.832;5.590;2023-01-08T06:02:39;9.30;99.90
29849;DHT22;16728;50.832;5.590;2023-01-08T06:05:41;9.30;99.90
29849;DHT22;16728;50.832;5.590;2023-01-08T06:08:43;9.30;99.90
29849;DHT22;16728;50.832;5.590;2023-01-08T06:11:45;9.30;99.90
29849;DHT22;16728;50.832;5.590;2023-01-08T06:14:47;9.30;99.90
29849;DHT22;16728;50.832;5.590;2023-01-08T06:17:49;9.30;99.90
29849;DHT22;16728;50.832;5.590;2023-01-08T06:20:51;9.30;99.90
29849;DHT22;16728;50.832;5.590;2023-01-08T06:23:53;9.30;99.90
29849;DHT22;16728;50.832;5.590;2023-01-08T06:26:55;9.30;99.90
29849;DHT22;16728;50.832;5.590;2023-01-08T06:29:57;9.30;99.90
29849;DHT22;16728;50.832;5.590;2023-01-08T06:33:00;9.30;99.90
29849;DHT22;16728;50.832;5.590;2023-01-08T06:36:03;9.30;99.90
29849;DHT22;16728;50.832;5.590;2023-01-08T06:39:06;9.30;99.90
29849;DHT22;16728;50.832;5.590;2023-01-08T06:42:08;9.20;99.90
29849;DHT22;16728;50.832;5.590;2023-01-08T06:45:10;9.30;99.90
29849;DHT22;16728;50.832;5.590;2023-01-08T06:48:12;9.20;99.90
29849;DHT22;16728;50.832;5.590;2023-01-08T06:51:14;9.30;99.90
29849;DHT22;16728;50.832;5.590;2023-01-08T06:54:16;9.20;99.90
29849;DHT22;16728;50.832;5.590;2023-01-08T06:57:18;9.30;99.90
29849;DHT22;16728;50.832;5.590;2023-01-08T07:00:20;9.30;99.90
29849;DHT22;16728;50.832;5.590;2023-01-08T07:03:24;9.30;99.90
29849;DHT22;16728;50.832;5.590;2023-01-08T07:06:26;9.20;99.90
29849;DHT22;16728;50.832;5.590;2023-01-08T07:09:28;9.20;99.90
29849;DHT22;16728;50.832;5.590;2023-01-08T07:12:30;9.20;99.90
29849;DHT22;16728;50.832;5.590;2023-01-08T07:15:32;9.20;99.90
29849;DHT22;16728;50.832;5.590;2023-01-08T07:18:34;9.20;99.90
29849;DHT22;16728;50.832;5.590;2023-01-08T07:21:36;9.20;99.90
29849;DHT22;16728;50.832;5.590;2023-01-08T07:24:39;9.20;99.90
29849;DHT22;16728;50.832;5.590;2023-01-08T07:27:41;9.10;99.90
29849;DHT22;16728;50.832;5.590;2023-01-08T07:30:43;9.00;99.90
29849;DHT22;16728;50.832;5.590;2023-01-08T07:33:45;9.10;99.90
29849;DHT22;16728;50.832;5.590;2023-01-08T07:36:47;9.10;99.90
29849;DHT22;16728;50.832;5.590;2023-01-08T07:39:49;9.10;99.90
29849;DHT22;16728;50.832;5.590;2023-01-08T07:43:01;9.00;99.90
29849;DHT22;16728;50.832;5.590;2023-01-08T07:46:03;8.90;99.90
29849;DHT22;16728;50.832;5.590;2023-01-08T07:49:06;8.90;99.90
29849;DHT22;16728;50.832;5.590;2023-01-08T07:52:08;8.90;99.90
29849;DHT22;16728;50.832;5.590;2023-01-08T07:55:09;8.90;99.90
29849;DHT22;16728;50.832;5.590;2023-01-08T07:58:13;8.90;99.90
29849;DHT22;16728;50.832;5.590;2023-01-08T08:01:15;8.90;99.90
29849;DHT22;16728;50.832;5.590;2023-01-08T08:04:17;8.90;99.90
29849;DHT22;16728;50.832;5.590;2023-01-08T08:07:19;9.00;99.90
29849;DHT22;16728;50.832;5.590;2023-01-08T08:10:21;8.90;99.90
29849;DHT22;16728;50.832;5.590;2023-01-08T08:13:23;8.90;99.90
29849;DHT22;16728;50.832;5.590;2023-01-08T08:16:25;9.00;99.90
29849;DHT22;16728;50.832;5.590;2023-01-08T08:19:27;9.00;99.90
29849;DHT22;16728;50.832;5.590;2023-01-08T08:22:29;9.00;99.90
29849;DHT22;16728;50.832;5.590;2023-01-08T08:25:31;9.10;99.90
29849;DHT22;16728;50.832;5.590;2023-01-08T08:28:33;9.10;99.90
29849;DHT22;16728;50.832;5.590;2023-01-08T08:31:36;9.10;99.90
29849;DHT22;16728;50.832;5.590;2023-01-08T08:34:38;9.20;99.90
29849;DHT22;16728;50.832;5.590;2023-01-08T08:37:40;9.20;99.90
29849;DHT22;16728;50.832;5.590;2023-01-08T08:40:42;9.30;99.90
29849;DHT22;16728;50.832;5.590;2023-01-08T08:43:44;9.30;99.90
29849;DHT22;16728;50.832;5.590;2023-01-08T08:46:46;9.40;99.90
29849;DHT22;16728;50.832;5.590;2023-01-08T08:49:48;9.40;99.90
29849;DHT22;16728;50.832;5.590;2023-01-08T08:52:50;9.40;99.90
29849;DHT22;16728;50.832;5.590;2023-01-08T08:55:53;9.50;99.90
29849;DHT22;16728;50.832;5.590;2023-01-08T08:58:55;9.60;99.90
29849;DHT22;16728;50.832;5.590;2023-01-08T09:01:58;9.70;99.90
29849;DHT22;16728;50.832;5.590;2023-01-08T09:05:01;9.80;99.90
29849;DHT22;16728;50.832;5.590;2023-01-08T09:08:03;9.80;99.90
29849;DHT22;16728;50.832;5.590;2023-01-08T09:11:04;9.80;99.90
29849;DHT22;16728;50.832;5.590;2023-01-08T09:14:07;9.90;99.90
29849;DHT22;16728;50.832;5.590;2023-01-08T09:17:08;10.00;99.90
29849;DHT22;16728;50.832;5.590;2023-01-08T09:20:11;10.10;99.90
29849;DHT22;16728;50.832;5.590;2023-01-08T09:23:13;10.20;99.90
29849;DHT22;16728;50.832;5.590;2023-01-08T09:26:15;10.20;99.90
29849;DHT22;16728;50.832;5.590;2023-01-08T09:29:17;10.20;99.90
29849;DHT22;16728;50.832;5.590;2023-01-08T09:32:19;10.30;99.90
29849;DHT22;16728;50.832;5.590;2023-01-08T09:35:21;10.30;99.90
29849;DHT22;16728;50.832;5.590;2023-01-08T09:38:23;10.30;99.90
29849;DHT22;16728;50.832;5.590;2023-01-08T09:41:33;10.30;99.90
29849;DHT22;16728;50.832;5.590;2023-01-08T09:44:38;10.30;99.90
29849;DHT22;16728;50.832;5.590;2023-01-08T09:47:42;10.30;99.90
29849;DHT22;16728;50.832;5.590;2023-01-08T09:50:46;10.30;99.90
29849;DHT22;16728;50.832;5.590;2023-01-08T09:53:54;10.30;99.90
29849;DHT22;16728;50.832;5.590;2023-01-08T09:56:58;10.20;99.90
29849;DHT22;16728;50.832;5.590;2023-01-08T10:00:00;10.20;99.90
29849;DHT22;16728;50.832;5.590;2023-01-08T10:03:02;10.20;99.90
29849;DHT22;16728;50.832;5.590;2023-01-08T10:06:09;10.10;99.90
29849;DHT22;16728;50.832;5.590;2023-01-08T10:09:13;10.10;99.90
29849;DHT22;16728;50.832;5.590;2023-01-08T10:12:29;10.10;99.90
29849;DHT22;16728;50.832;5.590;2023-01-08T10:15:31;10.10;99.90
29849;DHT22;16728;50.832;5.590;2023-01-08T10:18:34;10.20;99.90
29849;DHT22;16728;50.832;5.590;2023-01-08T10:21:38;10.10;99.90
29849;DHT22;16728;50.832;5.590;2023-01-08T10:24:41;10.10;99.90
29849;DHT22;16728;50.832;5.590;2023-01-08T10:27:49;10.10;99.90
29849;DHT22;16728;50.832;5.590;2023-01-08T10:31:15;10.10;99.90
29849;DHT22;16728;50.832;5.590;2023-01-08T10:34:26;10.10;99.90
29849;DHT22;16728;50.832;5.590;2023-01-08T10:37:40;10.20;99.90
29849;DHT22;16728;50.832;5.590;2023-01-08T10:40:48;10.30;99.90
29849;DHT22;16728;50.832;5.590;2023-01-08T10:44:00;10.40;99.90
29849;DHT22;16728;50.832;5.590;2023-01-08T10:47:04;10.50;99.90
29849;DHT22;16728;50.832;5.590;2023-01-08T10:50:19;10.60;99.90
29849;DHT22;16728;50.832;5.590;2023-01-08T10:53:28;10.70;99.90
29849;DHT22;16728;50.832;5.590;2023-01-08T10:56:40;10.70;99.90
29849;DHT22;16728;50.832;5.590;2023-01-08T10:59:42;10.70;99.90
29849;DHT22;16728;50.832;5.590;2023-01-08T11:02:45;10.80;99.90
29849;DHT22;16728;50.832;5.590;2023-01-08T11:05:51;10.80;99.90
29849;DHT22;16728;50.832;5.590;2023-01-08T11:08:56;10.90;99.90
29849;DHT22;16728;50.832;5.590;2023-01-08T11:11:59;10.90;99.90
29849;DHT22;16728;50.832;5.590;2023-01-08T11:15:04;10.90;99.90
29849;DHT22;16728;50.832;5.590;2023-01-08T11:18:22;10.90;99.90
29849;DHT22;16728;50.832;5.590;2023-01-08T11:21:28;11.00;99.90
29849;DHT22;16728;50.832;5.590;2023-01-08T11:24:36;11.00;99.90
29849;DHT22;16728;50.832;5.590;2023-01-08T11:27:41;11.10;99.90
29849;DHT22;16728;50.832;5.590;2023-01-08T11:30:52;11.10;99.90
29849;DHT22;16728;50.832;5.590;2023-01-08T11:38:00;11.00;99.90
29849;DHT22;16728;50.832;5.590;2023-01-08T11:41:33;11.00;99.90
29849;DHT22;16728;50.832;5.590;2023-01-08T11:44:53;10.80;99.90
29849;DHT22;16728;50.832;5.590;2023-01-08T12:12:09;10.90;99.90
29849;DHT22;16728;50.832;5.590;2023-01-08T12:22:50;10.90;99.90
29849;DHT22;16728;50.832;5.590;2023-01-08T12:26:27;10.70;99.90
29849;DHT22;16728;50.832;5.590;2023-01-08T12:40:34;10.90;99.90
29849;DHT22;16728;50.832;5.590;2023-01-08T12:46:51;11.00;99.90
29849;DHT22;16728;50.832;5.590;2023-01-08T12:53:36;11.10;99.90
29849;DHT22;16728;50.832;5.590;2023-01-08T12:57:13;11.00;99.90
29849;DHT22;16728;50.832;5.590;2023-01-08T13:01:24;10.90;99.90
29849;DHT22;16728;50.832;5.590;2023-01-08T13:04:08;10.90;99.90
29849;DHT22;16728;50.832;5.590;2023-01-08T13:07:22;10.90;99.90
29849;DHT22;16728;50.832;5.590;2023-01-08T13:10:50;10.90;99.90
29849;DHT22;16728;50.832;5.590;2023-01-08T13:14:00;11.00;99.90
29849;DHT22;16728;50.832;5.590;2023-01-08T13:17:05;11.00;99.90
29849;DHT22;16728;50.832;5.590;2023-01-08T13:20:08;11.00;99.90
29849;DHT22;16728;50.832;5.590;2023-01-08T13:23:24;11.00;99.90
29849;DHT22;16728;50.832;5.590;2023-01-08T13:26:30;11.00;99.90
29849;DHT22;16728;50.832;5.590;2023-01-08T13:29:36;11.10;99.90
29849;DHT22;16728;50.832;5.590;2023-01-08T13:32:43;11.10;99.90
29849;DHT22;16728;50.832;5.590;2023-01-08T13:35:48;11.10;99.90
29849;DHT22;16728;50.832;5.590;2023-01-08T13:42:32;11.10;99.90
29849;DHT22;16728;50.832;5.590;2023-01-08T14:08:00;11.00;99.90
29849;DHT22;16728;50.832;5.590;2023-01-08T14:20:55;10.90;99.90
29849;DHT22;16728;50.832;5.590;2023-01-08T14:23:58;10.80;99.90
29849;DHT22;16728;50.832;5.590;2023-01-08T14:27:00;10.70;99.90
29849;DHT22;16728;50.832;5.590;2023-01-08T14:30:12;10.70;99.90
29849;DHT22;16728;50.832;5.590;2023-01-08T14:33:15;10.60;99.90
29849;DHT22;16728;50.832;5.590;2023-01-08T14:36:18;10.60;99.90
29849;DHT22;16728;50.832;5.590;2023-01-08T14:39:22;10.60;99.90
29849;DHT22;16728;50.832;5.590;2023-01-08T14:42:34;10.70;99.90
29849;DHT22;16728;50.832;5.590;2023-01-08T14:45:46;10.60;99.90
29849;DHT22;16728;50.832;5.590;2023-01-08T14:48:49;10.60;99.90
29849;DHT22;16728;50.832;5.590;2023-01-08T14:51:53;10.60;99.90
29849;DHT22;16728;50.832;5.590;2023-01-08T14:54:58;10.60;99.90
29849;DHT22;16728;50.832;5.590;2023-01-08T14:58:01;10.50;99.90
29849;DHT22;16728;50.832;5.590;2023-01-08T15:01:24;10.50;99.90
29849;DHT22;16728;50.832;5.590;2023-01-08T15:04:34;10.50;99.90
29849;DHT22;16728;50.832;5.590;2023-01-08T15:07:36;10.50;99.90
29849;DHT22;16728;50.832;5.590;2023-01-08T15:10:40;10.60;99.90
29849;DHT22;16728;50.832;5.590;2023-01-08T15:13:44;10.50;99.90
29849;DHT22;16728;50.832;5.590;2023-01-08T15:16:46;10.50;99.90
29849;DHT22;16728;50.832;5.590;2023-01-08T15:19:58;10.40;99.90
29849;DHT22;16728;50.832;5.590;2023-01-08T15:27:21;10.40;99.90
29849;DHT22;16728;50.832;5.590;2023-01-08T15:31:28;10.30;99.90
29849;DHT22;16728;50.832;5.590;2023-01-08T15:38:06;10.30;99.90
29849;DHT22;16728;50.832;5.590;2023-01-08T15:41:18;10.40;99.90
29849;DHT22;16728;50.832;5.590;2023-01-08T15:44:41;10.20;99.90
29849;DHT22;16728;50.832;5.590;2023-01-08T15:47:53;10.20;99.90
29849;DHT22;16728;50.832;5.590;2023-01-08T15:51:10;10.20;99.90
29849;DHT22;16728;50.832;5.590;2023-01-08T15:54:20;10.20;99.90
29849;DHT22;16728;50.832;5.590;2023-01-08T15:57:53;10.20;99.90
29849;DHT22;16728;50.832;5.590;2023-01-08T16:01:11;10.10;99.90
29849;DHT22;16728;50.832;5.590;2023-01-08T16:04:17;10.10;99.90
29849;DHT22;16728;50.832;5.590;2023-01-08T16:07:24;10.10;99.90
29849;DHT22;16728;50.832;5.590;2023-01-08T16:10:31;10.10;99.90
29849;DHT22;16728;50.832;5.590;2023-01-08T16:13:46;10.00;99.90
29849;DHT22;16728;50.832;5.590;2023-01-08T16:16:53;10.00;99.90
29849;DHT22;16728;50.832;5.590;2023-01-08T16:20:08;10.10;99.90
29849;DHT22;16728;50.832;5.590;2023-01-08T16:23:14;10.00;99.90
29849;DHT22;16728;50.832;5.590;2023-01-08T16:26:26;10.00;99.90
29849;DHT22;16728;50.832;5.590;2023-01-08T16:29:39;10.00;99.90
29849;DHT22;16728;50.832;5.590;2023-01-08T16:32:54;10.00;99.90
29849;DHT22;16728;50.832;5.590;2023-01-08T16:36:11;9.90;99.90
29849;DHT22;16728;50.832;5.590;2023-01-08T16:39:34;9.90;99.90
29849;DHT22;16728;50.832;5.590;2023-01-08T16:43:06;9.90;99.90
29849;DHT22;16728;50.832;5.590;2023-01-08T16:46:43;9.80;99.90
29849;DHT22;16728;50.832;5.590;2023-01-08T16:50:09;9.80;99.90
29849;DHT22;16728;50.832;5.590;2023-01-08T16:53:45;9.70;99.90
29849;DHT22;16728;50.832;5.590;2023-01-08T16:57:12;9.70;99.90
29849;DHT22;16728;50.832;5.590;2023-01-08T17:00:39;9.70;99.90
29849;DHT22;16728;50.832;5.590;2023-01-08T17:03:58;9.70;99.90
29849;DHT22;16728;50.832;5.590;2023-01-08T17:07:17;9.70;99.90
29849;DHT22;16728;50.832;5.590;2023-01-08T17:10:53;9.70;99.90
29849;DHT22;16728;50.832;5.590;2023-01-08T17:14:14;9.70;99.90
29849;DHT22;16728;50.832;5.590;2023-01-08T17:17:35;9.70;99.90
29849;DHT22;16728;50.832;5.590;2023-01-08T17:21:24;9.70;99.90
29849;DHT22;16728;50.832;5.590;2023-01-08T17:24:43;9.70;99.90
29849;DHT22;16728;50.832;5.590;2023-01-08T17:28:20;9.70;99.90
29849;DHT22;16728;50.832;5.590;2023-01-08T17:31:58;9.70;99.90
29849;DHT22;16728;50.832;5.590;2023-01-08T17:35:23;9.70;99.90
29849;DHT22;16728;50.832;5.590;2023-01-08T17:39:03;9.70;99.90
29849;DHT22;16728;50.832;5.590;2023-01-08T17:42:37;9.70;99.90
29849;DHT22;16728;50.832;5.590;2023-01-08T17:45:51;9.70;99.90
29849;DHT22;16728;50.832;5.590;2023-01-08T17:49:16;9.60;99.90
29849;DHT22;16728;50.832;5.590;2023-01-08T17:52:52;9.60;99.90
29849;DHT22;16728;50.832;5.590;2023-01-08T17:56:18;9.70;99.90
29849;DHT22;16728;50.832;5.590;2023-01-08T17:59:50;9.60;99.90
29849;DHT22;16728;50.832;5.590;2023-01-08T18:03:34;9.60;99.90
29849;DHT22;16728;50.832;5.590;2023-01-08T18:07:13;9.60;99.90
29849;DHT22;16728;50.832;5.590;2023-01-08T18:10:49;9.60;99.90
29849;DHT22;16728;50.832;5.590;2023-01-08T18:14:08;9.60;99.90
29849;DHT22;16728;50.832;5.590;2023-01-08T18:17:45;9.60;99.90
29849;DHT22;16728;50.832;5.590;2023-01-08T18:21:13;9.50;99.90
29849;DHT22;16728;50.832;5.590;2023-01-08T18:24:44;9.50;99.90
29849;DHT22;16728;50.832;5.590;2023-01-08T18:28:04;9.60;99.90
29849;DHT22;16728;50.832;5.590;2023-01-08T18:34:52;9.50;99.90
29849;DHT22;16728;50.832;5.590;2023-01-08T18:38:09;9.60;99.90
29849;DHT22;16728;50.832;5.590;2023-01-08T18:41:26;9.60;99.90
29849;DHT22;16728;50.832;5.590;2023-01-08T18:44:51;9.60;99.90
29849;DHT22;16728;50.832;5.590;2023-01-08T18:48:07;9.50;99.90
29849;DHT22;16728;50.832;5.590;2023-01-08T18:51:28;9.50;99.90
29849;DHT22;16728;50.832;5.590;2023-01-08T18:54:33;9.50;99.90
29849;DHT22;16728;50.832;5.590;2023-01-08T18:57:49;9.50;99.90
29849;DHT22;16728;50.832;5.590;2023-01-08T19:01:09;9.50;99.90
29849;DHT22;16728;50.832;5.590;2023-01-08T19:04:38;9.50;99.90
29849;DHT22;16728;50.832;5.590;2023-01-08T19:08:20;9.50;99.90
29849;DHT22;16728;50.832;5.590;2023-01-08T19:11:54;9.40;99.90
29849;DHT22;16728;50.832;5.590;2023-01-08T19:15:18;9.50;99.90
29849;DHT22;16728;50.832;5.590;2023-01-08T19:18:38;9.50;99.90
29849;DHT22;16728;50.832;5.590;2023-01-08T19:22:09;9.50;99.90
29849;DHT22;16728;50.832;5.590;2023-01-08T19:25:19;9.60;99.90
29849;DHT22;16728;50.832;5.590;2023-01-08T19:28:57;9.60;99.90
29849;DHT22;16728;50.832;5.590;2023-01-08T19:36:01;9.70;99.90
29849;DHT22;16728;50.832;5.590;2023-01-08T19:39:25;9.70;99.90
29849;DHT22;16728;50.832;5.590;2023-01-08T19:42:39;9.60;99.90
29849;DHT22;16728;50.832;5.590;2023-01-08T19:46:25;9.70;99.90
29849;DHT22;16728;50.832;5.590;2023-01-08T19:49:45;9.60;99.90
29849;DHT22;16728;50.832;5.590;2023-01-08T19:53:12;9.70;99.90
29849;DHT22;16728;50.832;5.590;2023-01-08T19:56:29;9.60;99.90
29849;DHT22;16728;50.832;5.590;2023-01-08T20:03:28;9.60;99.90
29849;DHT22;16728;50.832;5.590;2023-01-08T20:06:46;9.70;99.90
29849;DHT22;16728;50.832;5.590;2023-01-08T20:10:31;9.70;99.90
29849;DHT22;16728;50.832;5.590;2023-01-08T20:14:01;9.70;99.90
29849;DHT22;16728;50.832;5.590;2023-01-08T20:17:24;9.80;99.90
29849;DHT22;16728;50.832;5.590;2023-01-08T20:24:28;9.80;99.90
29849;DHT22;16728;50.832;5.590;2023-01-08T20:28:05;9.80;99.90
29849;DHT22;16728;50.832;5.590;2023-01-08T20:31:20;9.70;99.90
29849;DHT22;16728;50.832;5.590;2023-01-08T20:34:40;9.80;99.90
29849;DHT22;16728;50.832;5.590;2023-01-08T20:38:01;9.70;99.90
29849;DHT22;16728;50.832;5.590;2023-01-08T20:41:07;9.70;99.90
29849;DHT22;16728;50.832;5.590;2023-01-08T20:44:30;9.70;99.90
29849;DHT22;16728;50.832;5.590;2023-01-08T20:47:50;9.70;99.90
29849;DHT22;16728;50.832;5.590;2023-01-08T20:51:05;9.60;99.90
29849;DHT22;16728;50.832;5.590;2023-01-08T20:54:40;9.60;99.90
29849;DHT22;16728;50.832;5.590;2023-01-08T20:57:54;9.60;99.90
29849;DHT22;16728;50.832;5.590;2023-01-08T21:01:09;9.60;99.90
29849;DHT22;16728;50.832;5.590;2023-01-08T21:04:38;9.60;99.90
29849;DHT22;16728;50.832;5.590;2023-01-08T21:07:47;9.50;99.90
29849;DHT22;16728;50.832;5.590;2023-01-08T21:10:59;9.50;99.90
29849;DHT22;16728;50.832;5.590;2023-01-08T21:14:01;9.50;99.90
29849;DHT22;16728;50.832;5.590;2023-01-08T21:17:03;9.50;99.90
29849;DHT22;16728;50.832;5.590;2023-01-08T21:20:05;9.50;99.90
29849;DHT22;16728;50.832;5.590;2023-01-08T21:23:08;9.50;99.90
29849;DHT22;16728;50.832;5.590;2023-01-08T21:26:11;9.40;99.90
29849;DHT22;16728;50.832;5.590;2023-01-08T21:29:13;9.40;99.90
29849;DHT22;16728;50.832;5.590;2023-01-08T21:32:17;9.40;99.90
29849;DHT22;16728;50.832;5.590;2023-01-08T21:35:19;9.40;99.90
29849;DHT22;16728;50.832;5.590;2023-01-08T21:38:21;9.40;99.90
29849;DHT22;16728;50.832;5.590;2023-01-08T21:41:25;9.50;99.90
29849;DHT22;16728;50.832;5.590;2023-01-08T21:44:45;9.50;99.90
29849;DHT22;16728;50.832;5.590;2023-01-08T21:48:06;9.50;99.90
29849;DHT22;16728;50.832;5.590;2023-01-08T21:51:08;9.50;99.90
29849;DHT22;16728;50.832;5.590;2023-01-08T21:54:29;9.50;99.90
29849;DHT22;16728;50.832;5.590;2023-01-08T21:57:37;9.50;99.90
29849;DHT22;16728;50.832;5.590;2023-01-08T22:00:39;9.50;99.90
29849;DHT22;16728;50.832;5.590;2023-01-08T22:03:42;9.50;99.90
29849;DHT22;16728;50.832;5.590;2023-01-08T22:06:44;9.50;99.90
29849;DHT22;16728;50.832;5.590;2023-01-08T22:09:46;9.50;99.90
29849;DHT22;16728;50.832;5.590;2023-01-08T22:12:51;9.40;99.90
29849;DHT22;16728;50.832;5.590;2023-01-08T22:16:06;9.50;99.90